sensor_id;sensor_type;location;lat;lon;timestamp;P1;durP1;ratioP1;P2;durP2;ratioP2
19877;SDS011;10101;52.204;9.910;2022-10-16T00:00:44;1.90;;;0.93;;
19877;SDS011;10101;52.204;9.910;2022-10-16T00:03:12;1.43;;;0.80;;
19877;SDS011;10101;52.204;9.910;2022-10-16T00:05:39;1.33;;;0.70;;
19877;SDS011;10101;52.204;9.910;2022-10-16T00:08:07;2.07;;;0.90;;
19877;SDS011;10101;52.204;9.910;2022-10-16T00:10:35;3.00;;;0.80;;
19877;SDS011;10101;52.204;9.910;2022-10-16T00:13:04;3.33;;;0.90;;
19877;SDS011;10101;52.204;9.910;2022-10-16T00:15:32;0.70;;;0.70;;
19877;SDS011;10101;52.204;9.910;2022-10-16T00:18:01;1.00;;;0.80;;
19877;SDS011;10101;52.204;9.910;2022-10-16T00:20:28;1.37;;;0.90;;
19877;SDS011;10101;52.204;9.910;2022-10-16T00:22:56;0.90;;;0.80;;
19877;SDS011;10101;52.204;9.910;2022-10-16T00:25:23;2.97;;;1.00;;
19877;SDS011;10101;52.204;9.910;2022-10-16T00:27:50;1.47;;;0.90;;
19877;SDS011;10101;52.204;9.910;2022-10-16T00:30:18;3.20;;;1.00;;
19877;SDS011;10101;52.204;9.910;2022-10-16T00:32:44;1.27;;;0.87;;
19877;SDS011;10101;52.204;9.910;2022-10-16T00:35:11;1.83;;;1.10;;
19877;SDS011;10101;52.204;9.910;2022-10-16T00:37:38;1.80;;;1.00;;
19877;SDS011;10101;52.204;9.910;2022-10-16T00:40:05;1.50;;;0.90;;
19877;SDS011;10101;52.204;9.910;2022-10-16T00:42:32;1.03;;;1.00;;
19877;SDS011;10101;52.204;9.910;2022-10-16T00:44:59;2.00;;;1.30;;
19877;SDS011;10101;52.204;9.910;2022-10-16T00:47:28;1.83;;;1.10;;
19877;SDS011;10101;52.204;9.910;2022-10-16T00:49:58;3.23;;;1.40;;
19877;SDS011;10101;52.204;9.910;2022-10-16T00:52:28;1.40;;;1.30;;
19877;SDS011;10101;52.204;9.910;2022-10-16T00:54:55;1.23;;;1.10;;
19877;SDS011;10101;52.204;9.910;2022-10-16T00:57:22;2.60;;;1.00;;
19877;SDS011;10101;52.204;9.910;2022-10-16T00:59:51;1.23;;;1.13;;
19877;SDS011;10101;52.204;9.910;2022-10-16T01:02:18;1.47;;;1.30;;
19877;SDS011;10101;52.204;9.910;2022-10-16T01:04:47;2.10;;;1.10;;
19877;SDS011;10101;52.204;9.910;2022-10-16T01:07:20;1.53;;;1.30;;
19877;SDS011;10101;52.204;9.910;2022-10-16T01:10:03;2.80;;;1.67;;
19877;SDS011;10101;52.204;9.910;2022-10-16T01:12:39;2.03;;;1.07;;
19877;SDS011;10101;52.204;9.910;2022-10-16T01:15:10;1.50;;;1.30;;
19877;SDS011;10101;52.204;9.910;2022-10-16T01:17:41;1.73;;;1.10;;
19877;SDS011;10101;52.204;9.910;2022-10-16T01:20:17;1.53;;;1.30;;
19877;SDS011;10101;52.204;9.910;2022-10-16T01:23:03;2.80;;;1.47;;
19877;SDS011;10101;52.204;9.910;2022-10-16T01:25:49;3.30;;;1.40;;
19877;SDS011;10101;52.204;9.910;2022-10-16T01:28:27;4.03;;;1.83;;
19877;SDS011;10101;52.204;9.910;2022-10-16T01:30:58;2.80;;;1.53;;
19877;SDS011;10101;52.204;9.910;2022-10-16T01:33:28;3.67;;;1.50;;
19877;SDS011;10101;52.204;9.910;2022-10-16T01:36:01;2.23;;;1.30;;
19877;SDS011;10101;52.204;9.910;2022-10-16T01:38:33;1.60;;;1.20;;
19877;SDS011;10101;52.204;9.910;2022-10-16T01:41:04;1.50;;;1.20;;
19877;SDS011;10101;52.204;9.910;2022-10-16T01:43:37;2.63;;;1.27;;
19877;SDS011;10101;52.204;9.910;2022-10-16T01:46:07;1.70;;;1.40;;
19877;SDS011;10101;52.204;9.910;2022-10-16T01:48:36;1.20;;;1.10;;
19877;SDS011;10101;52.204;9.910;2022-10-16T01:51:05;1.37;;;1.20;;
19877;SDS011;10101;52.204;9.910;2022-10-16T01:53:34;1.93;;;1.30;;
19877;SDS011;10101;52.204;9.910;2022-10-16T01:56:02;3.70;;;1.83;;
19877;SDS011;10101;52.204;9.910;2022-10-16T01:58:33;1.73;;;1.40;;
19877;SDS011;10101;52.204;9.910;2022-10-16T02:01:06;1.90;;;1.10;;
19877;SDS011;10101;52.204;9.910;2022-10-16T02:03:34;1.13;;;1.13;;
19877;SDS011;10101;52.204;9.910;2022-10-16T02:06:03;2.50;;;1.40;;
19877;SDS011;10101;52.204;9.910;2022-10-16T02:08:30;2.83;;;1.10;;
19877;SDS011;10101;52.204;9.910;2022-10-16T02:10:57;2.93;;;1.30;;
19877;SDS011;10101;52.204;9.910;2022-10-16T02:13:27;2.97;;;1.40;;
19877;SDS011;10101;52.204;9.910;2022-10-16T02:15:57;3.47;;;1.47;;
19877;SDS011;10101;52.204;9.910;2022-10-16T02:18:25;1.50;;;1.17;;
19877;SDS011;10101;52.204;9.910;2022-10-16T02:20:55;3.63;;;1.53;;
19877;SDS011;10101;52.204;9.910;2022-10-16T02:23:27;2.00;;;1.50;;
19877;SDS011;10101;52.204;9.910;2022-10-16T02:25:59;3.80;;;1.67;;
19877;SDS011;10101;52.204;9.910;2022-10-16T02:28:31;1.60;;;1.50;;
19877;SDS011;10101;52.204;9.910;2022-10-16T02:31:04;1.97;;;1.40;;
19877;SDS011;10101;52.204;9.910;2022-10-16T02:33:36;1.60;;;1.27;;
19877;SDS011;10101;52.204;9.910;2022-10-16T02:36:04;3.50;;;1.47;;
19877;SDS011;10101;52.204;9.910;2022-10-16T02:38:32;2.33;;;1.10;;
19877;SDS011;10101;52.204;9.910;2022-10-16T02:40:59;2.23;;;1.50;;
19877;SDS011;10101;52.204;9.910;2022-10-16T02:43:26;1.40;;;1.20;;
19877;SDS011;10101;52.204;9.910;2022-10-16T02:45:53;1.40;;;1.30;;
19877;SDS011;10101;52.204;9.910;2022-10-16T02:48:20;3.60;;;1.37;;
19877;SDS011;10101;52.204;9.910;2022-10-16T02:50:48;1.60;;;1.23;;
19877;SDS011;10101;52.204;9.910;2022-10-16T02:53:16;2.43;;;1.43;;
19877;SDS011;10101;52.204;9.910;2022-10-16T02:55:42;1.93;;;1.50;;
19877;SDS011;10101;52.204;9.910;2022-10-16T02:58:09;3.57;;;1.50;;
19877;SDS011;10101;52.204;9.910;2022-10-16T03:00:36;3.00;;;1.60;;
19877;SDS011;10101;52.204;9.910;2022-10-16T03:03:02;1.77;;;1.67;;
19877;SDS011;10101;52.204;9.910;2022-10-16T03:05:29;2.93;;;1.53;;
19877;SDS011;10101;52.204;9.910;2022-10-16T03:07:57;2.57;;;1.70;;
19877;SDS011;10101;52.204;9.910;2022-10-16T03:10:25;2.83;;;1.93;;
19877;SDS011;10101;52.204;9.910;2022-10-16T03:12:52;6.70;;;2.03;;
19877;SDS011;10101;52.204;9.910;2022-10-16T03:15:18;4.03;;;1.70;;
19877;SDS011;10101;52.204;9.910;2022-10-16T03:17:45;3.23;;;2.00;;
19877;SDS011;10101;52.204;9.910;2022-10-16T03:20:12;3.23;;;1.87;;
19877;SDS011;10101;52.204;9.910;2022-10-16T03:22:39;1.77;;;1.40;;
19877;SDS011;10101;52.204;9.910;2022-10-16T03:25:07;4.00;;;1.83;;
19877;SDS011;10101;52.204;9.910;2022-10-16T03:27:34;2.63;;;2.00;;
19877;SDS011;10101;52.204;9.910;2022-10-16T03:30:01;2.23;;;1.83;;
19877;SDS011;10101;52.204;9.910;2022-10-16T03:32:28;2.83;;;1.70;;
19877;SDS011;10101;52.204;9.910;2022-10-16T03:34:55;3.07;;;1.57;;
19877;SDS011;10101;52.204;9.910;2022-10-16T03:37:22;2.27;;;1.30;;
19877;SDS011;10101;52.204;9.910;2022-10-16T03:39:49;2.73;;;2.00;;
19877;SDS011;10101;52.204;9.910;2022-10-16T03:42:17;2.83;;;1.43;;
19877;SDS011;10101;52.204;9.910;2022-10-16T03:44:43;2.17;;;1.80;;
19877;SDS011;10101;52.204;9.910;2022-10-16T03:47:10;2.10;;;1.67;;
19877;SDS011;10101;52.204;9.910;2022-10-16T03:49:37;2.67;;;1.83;;
19877;SDS011;10101;52.204;9.910;2022-10-16T03:52:03;5.70;;;1.70;;
19877;SDS011;10101;52.204;9.910;2022-10-16T03:54:30;2.93;;;1.80;;
19877;SDS011;10101;52.204;9.910;2022-10-16T03:56:57;3.23;;;1.83;;
19877;SDS011;10101;52.204;9.910;2022-10-16T03:59:25;3.60;;;1.90;;
19877;SDS011;10101;52.204;9.910;2022-10-16T04:01:51;3.70;;;1.80;;
19877;SDS011;10101;52.204;9.910;2022-10-16T04:04:18;3.60;;;1.80;;
19877;SDS011;10101;52.204;9.910;2022-10-16T04:06:45;3.33;;;2.10;;
19877;SDS011;10101;52.204;9.910;2022-10-16T04:09:12;1.70;;;1.30;;
19877;SDS011;10101;52.204;9.910;2022-10-16T04:11:38;3.70;;;1.90;;
19877;SDS011;10101;52.204;9.910;2022-10-16T04:14:05;1.83;;;1.67;;
19877;SDS011;10101;52.204;9.910;2022-10-16T04:16:33;3.57;;;1.60;;
19877;SDS011;10101;52.204;9.910;2022-10-16T04:19:00;2.27;;;1.90;;
19877;SDS011;10101;52.204;9.910;2022-10-16T04:21:27;3.40;;;1.50;;
19877;SDS011;10101;52.204;9.910;2022-10-16T04:23:54;3.10;;;1.77;;
19877;SDS011;10101;52.204;9.910;2022-10-16T04:26:20;2.70;;;1.70;;
19877;SDS011;10101;52.204;9.910;2022-10-16T04:28:47;3.77;;;1.77;;
19877;SDS011;10101;52.204;9.910;2022-10-16T04:31:14;3.70;;;1.70;;
19877;SDS011;10101;52.204;9.910;2022-10-16T04:33:43;1.63;;;1.53;;
19877;SDS011;10101;52.204;9.910;2022-10-16T04:36:10;2.97;;;1.80;;
19877;SDS011;10101;52.204;9.910;2022-10-16T04:38:37;2.73;;;1.60;;
19877;SDS011;10101;52.204;9.910;2022-10-16T04:41:04;3.57;;;2.40;;
19877;SDS011;10101;52.204;9.910;2022-10-16T04:43:31;4.27;;;1.97;;
19877;SDS011;10101;52.204;9.910;2022-10-16T04:45:58;2.50;;;1.90;;
19877;SDS011;10101;52.204;9.910;2022-10-16T04:48:25;2.40;;;1.60;;
19877;SDS011;10101;52.204;9.910;2022-10-16T04:50:53;4.57;;;1.73;;
19877;SDS011;10101;52.204;9.910;2022-10-16T04:53:21;2.13;;;1.70;;
19877;SDS011;10101;52.204;9.910;2022-10-16T04:55:48;2.80;;;1.30;;
19877;SDS011;10101;52.204;9.910;2022-10-16T04:58:15;2.73;;;1.43;;
19877;SDS011;10101;52.204;9.910;2022-10-16T05:00:43;4.47;;;1.43;;
19877;SDS011;10101;52.204;9.910;2022-10-16T05:03:11;2.80;;;1.73;;
19877;SDS011;10101;52.204;9.910;2022-10-16T05:05:41;2.10;;;1.60;;
19877;SDS011;10101;52.204;9.910;2022-10-16T05:08:10;3.00;;;1.97;;
19877;SDS011;10101;52.204;9.910;2022-10-16T05:10:38;1.60;;;1.27;;
19877;SDS011;10101;52.204;9.910;2022-10-16T05:13:05;2.50;;;1.40;;
19877;SDS011;10101;52.204;9.910;2022-10-16T05:15:31;2.23;;;1.30;;
19877;SDS011;10101;52.204;9.910;2022-10-16T05:17:58;3.67;;;1.43;;
19877;SDS011;10101;52.204;9.910;2022-10-16T05:20:25;3.37;;;1.20;;
19877;SDS011;10101;52.204;9.910;2022-10-16T05:22:52;4.50;;;1.40;;
19877;SDS011;10101;52.204;9.910;2022-10-16T05:25:20;3.13;;;1.63;;
19877;SDS011;10101;52.204;9.910;2022-10-16T05:27:47;2.60;;;1.40;;
19877;SDS011;10101;52.204;9.910;2022-10-16T05:30:14;3.67;;;1.33;;
19877;SDS011;10101;52.204;9.910;2022-10-16T05:32:41;3.97;;;1.70;;
19877;SDS011;10101;52.204;9.910;2022-10-16T05:35:11;1.60;;;1.47;;
19877;SDS011;10101;52.204;9.910;2022-10-16T05:37:38;2.87;;;1.77;;
19877;SDS011;10101;52.204;9.910;2022-10-16T05:40:06;1.97;;;1.60;;
19877;SDS011;10101;52.204;9.910;2022-10-16T05:42:35;2.07;;;1.40;;
19877;SDS011;10101;52.204;9.910;2022-10-16T05:45:02;2.70;;;1.27;;
19877;SDS011;10101;52.204;9.910;2022-10-16T05:47:30;4.43;;;1.70;;
19877;SDS011;10101;52.204;9.910;2022-10-16T05:49:56;5.43;;;1.63;;
19877;SDS011;10101;52.204;9.910;2022-10-16T05:52:23;1.67;;;1.30;;
19877;SDS011;10101;52.204;9.910;2022-10-16T05:54:50;1.60;;;1.50;;
19877;SDS011;10101;52.204;9.910;2022-10-16T05:57:16;1.30;;;1.20;;
19877;SDS011;10101;52.204;9.910;2022-10-16T05:59:44;7.83;;;2.00;;
19877;SDS011;10101;52.204;9.910;2022-10-16T06:02:12;2.20;;;1.40;;
19877;SDS011;10101;52.204;9.910;2022-10-16T06:04:39;3.37;;;1.60;;
19877;SDS011;10101;52.204;9.910;2022-10-16T06:07:06;2.40;;;1.47;;
19877;SDS011;10101;52.204;9.910;2022-10-16T06:09:33;2.23;;;1.40;;
19877;SDS011;10101;52.204;9.910;2022-10-16T06:12:00;2.17;;;1.40;;
19877;SDS011;10101;52.204;9.910;2022-10-16T06:14:26;1.87;;;1.47;;
19877;SDS011;10101;52.204;9.910;2022-10-16T06:16:54;1.70;;;1.60;;
19877;SDS011;10101;52.204;9.910;2022-10-16T06:19:21;1.67;;;1.57;;
19877;SDS011;10101;52.204;9.910;2022-10-16T06:21:48;2.47;;;1.50;;
19877;SDS011;10101;52.204;9.910;2022-10-16T06:24:15;1.63;;;1.53;;
19877;SDS011;10101;52.204;9.910;2022-10-16T06:26:42;1.73;;;1.50;;
19877;SDS011;10101;52.204;9.910;2022-10-16T06:29:09;1.50;;;1.40;;
19877;SDS011;10101;52.204;9.910;2022-10-16T06:31:35;1.50;;;1.40;;
19877;SDS011;10101;52.204;9.910;2022-10-16T06:34:03;2.20;;;1.50;;
19877;SDS011;10101;52.204;9.910;2022-10-16T06:36:34;3.27;;;1.37;;
19877;SDS011;10101;52.204;9.910;2022-10-16T06:39:01;5.03;;;1.53;;
19877;SDS011;10101;52.204;9.910;2022-10-16T06:41:27;2.23;;;1.47;;
19877;SDS011;10101;52.204;9.910;2022-10-16T06:43:54;4.37;;;1.40;;
19877;SDS011;10101;52.204;9.910;2022-10-16T06:46:22;3.80;;;1.30;;
19877;SDS011;10101;52.204;9.910;2022-10-16T06:48:50;1.70;;;1.57;;
19877;SDS011;10101;52.204;9.910;2022-10-16T06:51:18;4.43;;;1.27;;
19877;SDS011;10101;52.204;9.910;2022-10-16T06:53:47;2.07;;;1.30;;
19877;SDS011;10101;52.204;9.910;2022-10-16T06:56:15;1.30;;;1.20;;
19877;SDS011;10101;52.204;9.910;2022-10-16T06:58:43;3.13;;;1.20;;
19877;SDS011;10101;52.204;9.910;2022-10-16T07:01:10;1.20;;;1.10;;
19877;SDS011;10101;52.204;9.910;2022-10-16T07:03:37;1.00;;;1.00;;
19877;SDS011;10101;52.204;9.910;2022-10-16T07:06:06;2.60;;;1.23;;
19877;SDS011;10101;52.204;9.910;2022-10-16T07:08:36;1.00;;;1.00;;
19877;SDS011;10101;52.204;9.910;2022-10-16T07:11:05;1.00;;;1.00;;
19877;SDS011;10101;52.204;9.910;2022-10-16T07:13:33;2.73;;;1.13;;
19877;SDS011;10101;52.204;9.910;2022-10-16T07:16:03;1.20;;;0.90;;
19877;SDS011;10101;52.204;9.910;2022-10-16T07:18:31;1.70;;;0.90;;
19877;SDS011;10101;52.204;9.910;2022-10-16T07:21:02;1.10;;;0.83;;
19877;SDS011;10101;52.204;9.910;2022-10-16T07:23:30;2.63;;;1.10;;
19877;SDS011;10101;52.204;9.910;2022-10-16T07:25:58;3.57;;;0.90;;
19877;SDS011;10101;52.204;9.910;2022-10-16T07:28:25;2.03;;;1.00;;
19877;SDS011;10101;52.204;9.910;2022-10-16T07:30:52;0.93;;;0.90;;
19877;SDS011;10101;52.204;9.910;2022-10-16T07:33:19;1.47;;;0.90;;
19877;SDS011;10101;52.204;9.910;2022-10-16T07:35:49;0.90;;;0.90;;
19877;SDS011;10101;52.204;9.910;2022-10-16T07:38:16;1.63;;;0.90;;
19877;SDS011;10101;52.204;9.910;2022-10-16T07:40:43;0.67;;;0.67;;
19877;SDS011;10101;52.204;9.910;2022-10-16T07:43:12;2.40;;;0.93;;
19877;SDS011;10101;52.204;9.910;2022-10-16T07:45:46;0.70;;;0.70;;
19877;SDS011;10101;52.204;9.910;2022-10-16T07:48:14;1.63;;;0.80;;
19877;SDS011;10101;52.204;9.910;2022-10-16T07:50:41;0.93;;;0.83;;
19877;SDS011;10101;52.204;9.910;2022-10-16T07:53:08;0.60;;;0.60;;
19877;SDS011;10101;52.204;9.910;2022-10-16T07:55:35;0.70;;;0.70;;
19877;SDS011;10101;52.204;9.910;2022-10-16T07:58:02;1.60;;;0.63;;
19877;SDS011;10101;52.204;9.910;2022-10-16T08:00:30;0.67;;;0.60;;
19877;SDS011;10101;52.204;9.910;2022-10-16T08:02:58;1.37;;;0.90;;
19877;SDS011;10101;52.204;9.910;2022-10-16T08:05:25;1.10;;;0.60;;
19877;SDS011;10101;52.204;9.910;2022-10-16T08:07:52;2.23;;;0.70;;
19877;SDS011;10101;52.204;9.910;2022-10-16T08:10:20;1.43;;;0.70;;
19877;SDS011;10101;52.204;9.910;2022-10-16T08:12:48;0.97;;;0.90;;
19877;SDS011;10101;52.204;9.910;2022-10-16T08:15:15;1.83;;;0.70;;
19877;SDS011;10101;52.204;9.910;2022-10-16T08:17:43;2.33;;;0.70;;
19877;SDS011;10101;52.204;9.910;2022-10-16T08:20:10;1.50;;;0.70;;
19877;SDS011;10101;52.204;9.910;2022-10-16T08:22:37;0.80;;;0.80;;
19877;SDS011;10101;52.204;9.910;2022-10-16T08:25:04;2.87;;;0.77;;
19877;SDS011;10101;52.204;9.910;2022-10-16T08:27:31;0.80;;;0.80;;
19877;SDS011;10101;52.204;9.910;2022-10-16T08:29:59;0.70;;;0.70;;
19877;SDS011;10101;52.204;9.910;2022-10-16T08:32:25;4.63;;;0.70;;
19877;SDS011;10101;52.204;9.910;2022-10-16T08:34:53;0.70;;;0.70;;
19877;SDS011;10101;52.204;9.910;2022-10-16T08:37:20;1.70;;;0.73;;
19877;SDS011;10101;52.204;9.910;2022-10-16T08:39:47;0.87;;;0.70;;
19877;SDS011;10101;52.204;9.910;2022-10-16T08:42:16;1.20;;;0.70;;
19877;SDS011;10101;52.204;9.910;2022-10-16T08:45:01;1.67;;;0.80;;
19877;SDS011;10101;52.204;9.910;2022-10-16T08:47:45;0.83;;;0.70;;
19877;SDS011;10101;52.204;9.910;2022-10-16T08:50:23;0.83;;;0.70;;
19877;SDS011;10101;52.204;9.910;2022-10-16T08:52:52;0.70;;;0.70;;
19877;SDS011;10101;52.204;9.910;2022-10-16T08:55:26;0.60;;;0.60;;
19877;SDS011;10101;52.204;9.910;2022-10-16T08:57:57;2.50;;;0.80;;
19877;SDS011;10101;52.204;9.910;2022-10-16T09:00:24;1.13;;;0.67;;
19877;SDS011;10101;52.204;9.910;2022-10-16T09:02:52;4.63;;;0.70;;
19877;SDS011;10101;52.204;9.910;2022-10-16T09:05:33;1.03;;;0.63;;
19877;SDS011;10101;52.204;9.910;2022-10-16T09:08:13;0.97;;;0.70;;
19877;SDS011;10101;52.204;9.910;2022-10-16T09:10:48;0.70;;;0.70;;
19877;SDS011;10101;52.204;9.910;2022-10-16T09:13:23;2.07;;;0.60;;
19877;SDS011;10101;52.204;9.910;2022-10-16T09:15:55;0.60;;;0.60;;
19877;SDS011;10101;52.204;9.910;2022-10-16T09:18:30;0.63;;;0.63;;
19877;SDS011;10101;52.204;9.910;2022-10-16T09:21:07;2.00;;;0.90;;
19877;SDS011;10101;52.204;9.910;2022-10-16T09:23:40;0.70;;;0.70;;
19877;SDS011;10101;52.204;9.910;2022-10-16T09:26:09;0.60;;;0.60;;
19877;SDS011;10101;52.204;9.910;2022-10-16T09:28:38;1.43;;;0.70;;
19877;SDS011;10101;52.204;9.910;2022-10-16T09:31:05;2.00;;;0.80;;
19877;SDS011;10101;52.204;9.910;2022-10-16T09:33:35;2.47;;;0.53;;
19877;SDS011;10101;52.204;9.910;2022-10-16T09:36:06;0.63;;;0.60;;
19877;SDS011;10101;52.204;9.910;2022-10-16T09:38:35;0.50;;;0.50;;
19877;SDS011;10101;52.204;9.910;2022-10-16T09:41:09;1.50;;;1.40;;
19877;SDS011;10101;52.204;9.910;2022-10-16T09:43:46;2.63;;;0.83;;
19877;SDS011;10101;52.204;9.910;2022-10-16T09:46:21;1.40;;;0.50;;
19877;SDS011;10101;52.204;9.910;2022-10-16T09:48:50;2.90;;;0.83;;
19877;SDS011;10101;52.204;9.910;2022-10-16T09:51:22;3.33;;;0.60;;
19877;SDS011;10101;52.204;9.910;2022-10-16T09:53:54;0.50;;;0.50;;
19877;SDS011;10101;52.204;9.910;2022-10-16T09:56:22;1.77;;;0.73;;
19877;SDS011;10101;52.204;9.910;2022-10-16T09:58:50;1.17;;;0.60;;
19877;SDS011;10101;52.204;9.910;2022-10-16T10:01:18;1.67;;;0.50;;
19877;SDS011;10101;52.204;9.910;2022-10-16T10:03:46;1.13;;;0.60;;
19877;SDS011;10101;52.204;9.910;2022-10-16T10:06:16;0.63;;;0.53;;
19877;SDS011;10101;52.204;9.910;2022-10-16T10:08:56;1.63;;;0.50;;
19877;SDS011;10101;52.204;9.910;2022-10-16T10:11:37;1.90;;;0.50;;
19877;SDS011;10101;52.204;9.910;2022-10-16T10:14:06;1.70;;;0.50;;
19877;SDS011;10101;52.204;9.910;2022-10-16T10:16:42;1.50;;;0.73;;
19877;SDS011;10101;52.204;9.910;2022-10-16T10:19:10;2.07;;;0.57;;
19877;SDS011;10101;52.204;9.910;2022-10-16T10:21:40;2.70;;;0.60;;
19877;SDS011;10101;52.204;9.910;2022-10-16T10:24:11;0.73;;;0.57;;
19877;SDS011;10101;52.204;9.910;2022-10-16T10:26:38;0.73;;;0.60;;
19877;SDS011;10101;52.204;9.910;2022-10-16T10:29:13;1.17;;;0.60;;
19877;SDS011;10101;52.204;9.910;2022-10-16T10:31:48;5.00;;;1.00;;
19877;SDS011;10101;52.204;9.910;2022-10-16T10:34:26;3.10;;;0.70;;
19877;SDS011;10101;52.204;9.910;2022-10-16T10:37:07;0.70;;;0.70;;
19877;SDS011;10101;52.204;9.910;2022-10-16T10:39:48;1.77;;;0.60;;
19877;SDS011;10101;52.204;9.910;2022-10-16T10:42:22;1.53;;;0.70;;
19877;SDS011;10101;52.204;9.910;2022-10-16T10:45:08;1.77;;;0.60;;
19877;SDS011;10101;52.204;9.910;2022-10-16T10:47:46;1.93;;;0.70;;
19877;SDS011;10101;52.204;9.910;2022-10-16T10:50:21;2.33;;;0.90;;
19877;SDS011;10101;52.204;9.910;2022-10-16T10:52:53;1.70;;;0.60;;
19877;SDS011;10101;52.204;9.910;2022-10-16T10:55:33;1.57;;;0.63;;
19877;SDS011;10101;52.204;9.910;2022-10-16T10:58:21;1.50;;;0.60;;
19877;SDS011;10101;52.204;9.910;2022-10-16T11:01:09;0.97;;;0.70;;
19877;SDS011;10101;52.204;9.910;2022-10-16T11:03:42;2.67;;;1.00;;
19877;SDS011;10101;52.204;9.910;2022-10-16T11:06:24;3.27;;;0.80;;
19877;SDS011;10101;52.204;9.910;2022-10-16T11:08:56;2.23;;;0.80;;
19877;SDS011;10101;52.204;9.910;2022-10-16T11:11:31;1.30;;;1.00;;
19877;SDS011;10101;52.204;9.910;2022-10-16T11:14:02;3.70;;;1.10;;
19877;SDS011;10101;52.204;9.910;2022-10-16T11:16:33;1.87;;;0.87;;
19877;SDS011;10101;52.204;9.910;2022-10-16T11:19:03;2.07;;;0.70;;
19877;SDS011;10101;52.204;9.910;2022-10-16T11:21:39;1.70;;;0.57;;
19877;SDS011;10101;52.204;9.910;2022-10-16T11:24:14;1.63;;;0.60;;
19877;SDS011;10101;52.204;9.910;2022-10-16T11:26:48;2.77;;;0.50;;
19877;SDS011;10101;52.204;9.910;2022-10-16T11:29:19;1.20;;;0.50;;
19877;SDS011;10101;52.204;9.910;2022-10-16T11:31:50;2.07;;;0.57;;
19877;SDS011;10101;52.204;9.910;2022-10-16T11:34:22;1.23;;;0.40;;
19877;SDS011;10101;52.204;9.910;2022-10-16T11:36:53;1.53;;;0.60;;
19877;SDS011;10101;52.204;9.910;2022-10-16T11:39:24;0.47;;;0.40;;
19877;SDS011;10101;52.204;9.910;2022-10-16T11:41:54;2.73;;;0.50;;
19877;SDS011;10101;52.204;9.910;2022-10-16T11:44:38;3.30;;;0.60;;
19877;SDS011;10101;52.204;9.910;2022-10-16T11:47:13;2.30;;;0.63;;
19877;SDS011;10101;52.204;9.910;2022-10-16T11:49:49;4.17;;;0.47;;
19877;SDS011;10101;52.204;9.910;2022-10-16T11:52:19;1.33;;;0.40;;
19877;SDS011;10101;52.204;9.910;2022-10-16T11:54:52;0.50;;;0.30;;
19877;SDS011;10101;52.204;9.910;2022-10-16T11:57:24;2.67;;;0.40;;
19877;SDS011;10101;52.204;9.910;2022-10-16T11:59:55;0.87;;;0.40;;
19877;SDS011;10101;52.204;9.910;2022-10-16T12:02:32;1.67;;;0.40;;
19877;SDS011;10101;52.204;9.910;2022-10-16T12:05:11;2.30;;;0.40;;
19877;SDS011;10101;52.204;9.910;2022-10-16T12:07:48;0.30;;;0.30;;
19877;SDS011;10101;52.204;9.910;2022-10-16T12:10:21;1.93;;;0.57;;
19877;SDS011;10101;52.204;9.910;2022-10-16T12:12:51;0.43;;;0.30;;
19877;SDS011;10101;52.204;9.910;2022-10-16T12:15:19;0.30;;;0.30;;
19877;SDS011;10101;52.204;9.910;2022-10-16T12:17:48;0.80;;;0.40;;
19877;SDS011;10101;52.204;9.910;2022-10-16T12:20:20;2.13;;;0.40;;
19877;SDS011;10101;52.204;9.910;2022-10-16T12:22:52;1.70;;;0.40;;
19877;SDS011;10101;52.204;9.910;2022-10-16T12:25:21;2.10;;;0.37;;
19877;SDS011;10101;52.204;9.910;2022-10-16T12:27:55;1.43;;;0.47;;
19877;SDS011;10101;52.204;9.910;2022-10-16T12:30:23;0.40;;;0.30;;
19877;SDS011;10101;52.204;9.910;2022-10-16T12:32:55;0.57;;;0.33;;
19877;SDS011;10101;52.204;9.910;2022-10-16T12:35:24;0.53;;;0.40;;
19877;SDS011;10101;52.204;9.910;2022-10-16T12:37:53;1.20;;;0.40;;
19877;SDS011;10101;52.204;9.910;2022-10-16T12:40:31;0.40;;;0.37;;
19877;SDS011;10101;52.204;9.910;2022-10-16T12:43:10;1.07;;;0.40;;
19877;SDS011;10101;52.204;9.910;2022-10-16T12:45:38;0.40;;;0.40;;
19877;SDS011;10101;52.204;9.910;2022-10-16T12:48:18;1.20;;;0.40;;
19877;SDS011;10101;52.204;9.910;2022-10-16T12:50:47;1.50;;;0.50;;
19877;SDS011;10101;52.204;9.910;2022-10-16T12:53:21;3.13;;;0.50;;
19877;SDS011;10101;52.204;9.910;2022-10-16T12:55:54;0.30;;;0.30;;
19877;SDS011;10101;52.204;9.910;2022-10-16T12:58:49;1.23;;;0.40;;
19877;SDS011;10101;52.204;9.910;2022-10-16T13:01:28;1.73;;;0.57;;
19877;SDS011;10101;52.204;9.910;2022-10-16T13:07:06;1.03;;;0.20;;
19877;SDS011;10101;52.204;9.910;2022-10-16T13:09:51;1.10;;;0.47;;
19877;SDS011;10101;52.204;9.910;2022-10-16T13:12:29;1.77;;;0.60;;
19877;SDS011;10101;52.204;9.910;2022-10-16T13:15:22;4.40;;;1.23;;
19877;SDS011;10101;52.204;9.910;2022-10-16T13:17:59;2.03;;;0.40;;
19877;SDS011;10101;52.204;9.910;2022-10-16T13:20:33;0.37;;;0.30;;
19877;SDS011;10101;52.204;9.910;2022-10-16T13:23:08;1.03;;;0.50;;
19877;SDS011;10101;52.204;9.910;2022-10-16T13:25:47;1.03;;;0.50;;
19877;SDS011;10101;52.204;9.910;2022-10-16T13:28:27;1.90;;;0.53;;
19877;SDS011;10101;52.204;9.910;2022-10-16T13:30:59;2.00;;;0.40;;
19877;SDS011;10101;52.204;9.910;2022-10-16T13:33:30;0.60;;;0.33;;
19877;SDS011;10101;52.204;9.910;2022-10-16T13:35:59;1.10;;;0.63;;
19877;SDS011;10101;52.204;9.910;2022-10-16T13:38:27;0.83;;;0.47;;
19877;SDS011;10101;52.204;9.910;2022-10-16T13:40:56;1.27;;;0.57;;
19877;SDS011;10101;52.204;9.910;2022-10-16T13:43:26;1.80;;;0.60;;
19877;SDS011;10101;52.204;9.910;2022-10-16T13:45:56;2.73;;;0.90;;
19877;SDS011;10101;52.204;9.910;2022-10-16T13:48:27;1.33;;;0.53;;
19877;SDS011;10101;52.204;9.910;2022-10-16T13:51:01;1.43;;;0.47;;
19877;SDS011;10101;52.204;9.910;2022-10-16T13:53:30;1.97;;;0.37;;
19877;SDS011;10101;52.204;9.910;2022-10-16T13:55:58;1.60;;;0.87;;
19877;SDS011;10101;52.204;9.910;2022-10-16T13:58:26;1.73;;;0.40;;
19877;SDS011;10101;52.204;9.910;2022-10-16T14:00:54;1.67;;;0.60;;
19877;SDS011;10101;52.204;9.910;2022-10-16T14:03:24;0.73;;;0.70;;
19877;SDS011;10101;52.204;9.910;2022-10-16T14:05:52;1.23;;;0.50;;
19877;SDS011;10101;52.204;9.910;2022-10-16T14:08:21;1.13;;;0.43;;
19877;SDS011;10101;52.204;9.910;2022-10-16T14:10:50;1.07;;;0.50;;
19877;SDS011;10101;52.204;9.910;2022-10-16T14:13:19;0.67;;;0.40;;
19877;SDS011;10101;52.204;9.910;2022-10-16T14:15:56;0.50;;;0.40;;
19877;SDS011;10101;52.204;9.910;2022-10-16T14:18:33;1.80;;;0.57;;
19877;SDS011;10101;52.204;9.910;2022-10-16T14:21:04;1.53;;;0.47;;
19877;SDS011;10101;52.204;9.910;2022-10-16T14:23:32;1.63;;;0.60;;
19877;SDS011;10101;52.204;9.910;2022-10-16T14:26:06;1.03;;;0.40;;
19877;SDS011;10101;52.204;9.910;2022-10-16T14:28:39;1.37;;;0.70;;
19877;SDS011;10101;52.204;9.910;2022-10-16T14:31:20;4.57;;;0.70;;
19877;SDS011;10101;52.204;9.910;2022-10-16T14:33:54;0.43;;;0.43;;
19877;SDS011;10101;52.204;9.910;2022-10-16T14:36:22;1.73;;;0.53;;
19877;SDS011;10101;52.204;9.910;2022-10-16T14:38:53;0.63;;;0.30;;
19877;SDS011;10101;52.204;9.910;2022-10-16T14:41:27;2.07;;;0.43;;
19877;SDS011;10101;52.204;9.910;2022-10-16T14:43:56;0.40;;;0.40;;
19877;SDS011;10101;52.204;9.910;2022-10-16T14:46:28;1.97;;;0.70;;
19877;SDS011;10101;52.204;9.910;2022-10-16T14:49:02;1.63;;;0.40;;
19877;SDS011;10101;52.204;9.910;2022-10-16T14:51:38;0.90;;;0.50;;
19877;SDS011;10101;52.204;9.910;2022-10-16T14:54:07;1.57;;;0.40;;
19877;SDS011;10101;52.204;9.910;2022-10-16T14:56:35;0.67;;;0.30;;
19877;SDS011;10101;52.204;9.910;2022-10-16T14:59:13;0.90;;;0.50;;
19877;SDS011;10101;52.204;9.910;2022-10-16T15:01:44;1.87;;;0.50;;
19877;SDS011;10101;52.204;9.910;2022-10-16T15:04:12;3.05;;;0.60;;
19877;SDS011;10101;52.204;9.910;2022-10-16T15:06:40;1.40;;;0.50;;
19877;SDS011;10101;52.204;9.910;2022-10-16T15:09:07;0.75;;;0.40;;